sensor_id;sensor_type;location;lat;lon;timestamp;temperature;humidity
15455;DHT22;21057;51.024;7.540;2022-11-20T00:01:16;4.20;99.90
15455;DHT22;21057;51.024;7.540;2022-11-20T00:03:44;4.10;99.90
15455;DHT22;21057;51.024;7.540;2022-11-20T00:06:12;4.20;99.90
15455;DHT22;21057;51.024;7.540;2022-11-20T00:08:40;4.20;99.90
15455;DHT22;21057;51.024;7.540;2022-11-20T00:11:09;4.10;99.90
15455;DHT22;21057;51.024;7.540;2022-11-20T00:13:37;4.10;99.90
15455;DHT22;21057;51.024;7.540;2022-11-20T00:16:05;4.10;99.90
15455;DHT22;21057;51.024;7.540;2022-11-20T00:18:34;4.00;99.90
15455;DHT22;21057;51.024;7.540;2022-11-20T00:21:02;4.00;99.90
15455;DHT22;21057;51.024;7.540;2022-11-20T00:23:28;4.00;99.90
15455;DHT22;21057;51.024;7.540;2022-11-20T00:26:00;4.10;99.90
15455;DHT22;21057;51.024;7.540;2022-11-20T00:28:27;4.20;99.90
15455;DHT22;21057;51.024;7.540;2022-11-20T00:31:00;4.10;99.90
15455;DHT22;21057;51.024;7.540;2022-11-20T00:33:28;4.00;99.90
15455;DHT22;21057;51.024;7.540;2022-11-20T00:35:59;4.00;99.90
15455;DHT22;21057;51.024;7.540;2022-11-20T00:38:26;4.00;99.90
15455;DHT22;21057;51.024;7.540;2022-11-20T00:40:57;4.00;99.90
15455;DHT22;21057;51.024;7.540;2022-11-20T00:43:24;4.00;99.90
15455;DHT22;21057;51.024;7.540;2022-11-20T00:45:55;4.10;99.90
15455;DHT22;21057;51.024;7.540;2022-11-20T00:48:22;4.20;99.90
15455;DHT22;21057;51.024;7.540;2022-11-20T00:50:49;4.10;99.90
15455;DHT22;21057;51.024;7.540;2022-11-20T00:53:15;4.20;99.90
15455;DHT22;21057;51.024;7.540;2022-11-20T00:55:42;4.10;99.90
15455;DHT22;21057;51.024;7.540;2022-11-20T00:58:10;4.20;99.90
15455;DHT22;21057;51.024;7.540;2022-11-20T01:00:37;4.10;99.90
15455;DHT22;21057;51.024;7.540;2022-11-20T01:03:04;4.00;99.90
15455;DHT22;21057;51.024;7.540;2022-11-20T01:05:34;4.00;99.90
15455;DHT22;21057;51.024;7.540;2022-11-20T01:08:01;4.00;99.90
15455;DHT22;21057;51.024;7.540;2022-11-20T01:10:28;4.10;99.90
15455;DHT22;21057;51.024;7.540;2022-11-20T01:12:55;4.10;99.90
15455;DHT22;21057;51.024;7.540;2022-11-20T01:15:37;4.20;99.90
15455;DHT22;21057;51.024;7.540;2022-11-20T01:18:04;4.20;99.90
15455;DHT22;21057;51.024;7.540;2022-11-20T01:20:34;4.10;99.90
15455;DHT22;21057;51.024;7.540;2022-11-20T01:23:01;4.10;99.90
15455;DHT22;21057;51.024;7.540;2022-11-20T01:25:28;4.10;99.90
15455;DHT22;21057;51.024;7.540;2022-11-20T01:27:55;4.20;99.90
15455;DHT22;21057;51.024;7.540;2022-11-20T01:30:22;4.20;99.90
15455;DHT22;21057;51.024;7.540;2022-11-20T01:32:50;4.20;99.90
15455;DHT22;21057;51.024;7.540;2022-11-20T01:35:16;4.10;99.90
15455;DHT22;21057;51.024;7.540;2022-11-20T01:37:43;4.10;99.90
15455;DHT22;21057;51.024;7.540;2022-11-20T01:40:11;4.10;99.90
15455;DHT22;21057;51.024;7.540;2022-11-20T01:42:38;4.00;99.90
15455;DHT22;21057;51.024;7.540;2022-11-20T01:45:44;4.00;99.90
15455;DHT22;21057;51.024;7.540;2022-11-20T01:48:17;4.00;99.90
15455;DHT22;21057;51.024;7.540;2022-11-20T01:50:44;3.90;99.90
15455;DHT22;21057;51.024;7.540;2022-11-20T01:53:15;3.80;99.90
15455;DHT22;21057;51.024;7.540;2022-11-20T01:55:46;4.00;99.90
15455;DHT22;21057;51.024;7.540;2022-11-20T01:58:15;4.00;99.90
15455;DHT22;21057;51.024;7.540;2022-11-20T02:00:43;4.00;99.90
15455;DHT22;21057;51.024;7.540;2022-11-20T02:03:12;3.90;99.90
15455;DHT22;21057;51.024;7.540;2022-11-20T02:05:44;3.90;99.90
15455;DHT22;21057;51.024;7.540;2022-11-20T02:08:12;4.00;99.90
15455;DHT22;21057;51.024;7.540;2022-11-20T02:10:39;4.00;99.90
15455;DHT22;21057;51.024;7.540;2022-11-20T02:13:06;4.00;99.90
15455;DHT22;21057;51.024;7.540;2022-11-20T02:15:56;4.00;99.90
15455;DHT22;21057;51.024;7.540;2022-11-20T02:18:23;4.00;99.90
15455;DHT22;21057;51.024;7.540;2022-11-20T02:20:54;4.20;99.90
15455;DHT22;21057;51.024;7.540;2022-11-20T02:23:28;4.10;99.90
15455;DHT22;21057;51.024;7.540;2022-11-20T02:25:59;4.20;99.90
15455;DHT22;21057;51.024;7.540;2022-11-20T02:28:28;4.30;99.90
15455;DHT22;21057;51.024;7.540;2022-11-20T02:30:55;4.10;99.90
15455;DHT22;21057;51.024;7.540;2022-11-20T02:33:21;4.10;99.90
15455;DHT22;21057;51.024;7.540;2022-11-20T02:35:48;4.20;99.90
15455;DHT22;21057;51.024;7.540;2022-11-20T02:38:15;4.20;99.90
15455;DHT22;21057;51.024;7.540;2022-11-20T02:40:42;4.00;99.90
15455;DHT22;21057;51.024;7.540;2022-11-20T02:43:10;4.00;99.90
15455;DHT22;21057;51.024;7.540;2022-11-20T02:45:37;4.00;99.90
15455;DHT22;21057;51.024;7.540;2022-11-20T02:48:06;4.00;99.90
15455;DHT22;21057;51.024;7.540;2022-11-20T02:50:37;4.10;99.90
15455;DHT22;21057;51.024;7.540;2022-11-20T02:53:04;4.00;99.90
15455;DHT22;21057;51.024;7.540;2022-11-20T02:55:31;4.00;99.90
15455;DHT22;21057;51.024;7.540;2022-11-20T02:57:57;3.80;99.90
15455;DHT22;21057;51.024;7.540;2022-11-20T03:00:25;3.80;99.90
15455;DHT22;21057;51.024;7.540;2022-11-20T03:02:52;3.90;99.90
15455;DHT22;21057;51.024;7.540;2022-11-20T03:05:19;4.10;99.90
15455;DHT22;21057;51.024;7.540;2022-11-20T03:07:46;4.10;99.90
15455;DHT22;21057;51.024;7.540;2022-11-20T03:10:13;4.00;99.90
15455;DHT22;21057;51.024;7.540;2022-11-20T03:12:40;4.00;99.90
15455;DHT22;21057;51.024;7.540;2022-11-20T03:15:07;4.10;99.90
15455;DHT22;21057;51.024;7.540;2022-11-20T03:17:35;4.00;99.90
15455;DHT22;21057;51.024;7.540;2022-11-20T03:20:03;3.90;99.90
15455;DHT22;21057;51.024;7.540;2022-11-20T03:22:30;3.90;99.90
15455;DHT22;21057;51.024;7.540;2022-11-20T03:24:57;3.90;99.90
15455;DHT22;21057;51.024;7.540;2022-11-20T03:27:23;4.00;99.90
15455;DHT22;21057;51.024;7.540;2022-11-20T03:29:50;3.90;99.90
15455;DHT22;21057;51.024;7.540;2022-11-20T03:32:17;4.10;99.90
15455;DHT22;21057;51.024;7.540;2022-11-20T03:34:45;4.00;99.90
15455;DHT22;21057;51.024;7.540;2022-11-20T03:37:12;4.00;99.90
15455;DHT22;21057;51.024;7.540;2022-11-20T03:39:39;4.10;99.90
15455;DHT22;21057;51.024;7.540;2022-11-20T03:42:06;4.00;99.90
15455;DHT22;21057;51.024;7.540;2022-11-20T03:44:53;4.00;99.90
15455;DHT22;21057;51.024;7.540;2022-11-20T03:47:20;4.00;99.90
15455;DHT22;21057;51.024;7.540;2022-11-20T03:49:48;4.00;99.90
15455;DHT22;21057;51.024;7.540;2022-11-20T03:52:14;4.10;99.90
15455;DHT22;21057;51.024;7.540;2022-11-20T03:54:41;4.10;99.90
15455;DHT22;21057;51.024;7.540;2022-11-20T03:57:08;4.10;99.90
15455;DHT22;21057;51.024;7.540;2022-11-20T03:59:35;4.20;99.90
15455;DHT22;21057;51.024;7.540;2022-11-20T04:02:01;4.20;99.90
15455;DHT22;21057;51.024;7.540;2022-11-20T04:04:28;4.10;99.90
15455;DHT22;21057;51.024;7.540;2022-11-20T04:06:56;4.10;99.90
15455;DHT22;21057;51.024;7.540;2022-11-20T04:09:23;4.10;99.90
15455;DHT22;21057;51.024;7.540;2022-11-20T04:11:50;4.10;99.90
15455;DHT22;21057;51.024;7.540;2022-11-20T04:14:17;4.00;99.90
15455;DHT22;21057;51.024;7.540;2022-11-20T04:16:43;4.10;99.90
15455;DHT22;21057;51.024;7.540;2022-11-20T04:19:14;4.10;99.90
15455;DHT22;21057;51.024;7.540;2022-11-20T04:21:42;4.10;99.90
15455;DHT22;21057;51.024;7.540;2022-11-20T04:24:10;4.00;99.90
15455;DHT22;21057;51.024;7.540;2022-11-20T04:26:37;4.10;99.90
15455;DHT22;21057;51.024;7.540;2022-11-20T04:29:04;4.00;99.90
15455;DHT22;21057;51.024;7.540;2022-11-20T04:31:32;4.00;99.90
15455;DHT22;21057;51.024;7.540;2022-11-20T04:34:00;4.00;99.90
15455;DHT22;21057;51.024;7.540;2022-11-20T04:36:29;4.10;99.90
15455;DHT22;21057;51.024;7.540;2022-11-20T04:38:57;4.00;99.90
15455;DHT22;21057;51.024;7.540;2022-11-20T04:41:28;4.10;99.90
15455;DHT22;21057;51.024;7.540;2022-11-20T04:43:57;4.10;99.90
15455;DHT22;21057;51.024;7.540;2022-11-20T04:46:29;4.10;99.90
15455;DHT22;21057;51.024;7.540;2022-11-20T04:48:56;4.00;99.90
15455;DHT22;21057;51.024;7.540;2022-11-20T04:51:23;4.00;99.90
15455;DHT22;21057;51.024;7.540;2022-11-20T04:53:50;4.00;99.90
15455;DHT22;21057;51.024;7.540;2022-11-20T04:56:17;3.90;99.90
15455;DHT22;21057;51.024;7.540;2022-11-20T04:58:45;3.90;99.90
15455;DHT22;21057;51.024;7.540;2022-11-20T05:01:14;3.80;99.90
15455;DHT22;21057;51.024;7.540;2022-11-20T05:03:42;3.80;99.90
15455;DHT22;21057;51.024;7.540;2022-11-20T05:06:12;3.80;99.90
15455;DHT22;21057;51.024;7.540;2022-11-20T05:08:39;4.00;99.90
15455;DHT22;21057;51.024;7.540;2022-11-20T05:11:07;4.10;99.90
15455;DHT22;21057;51.024;7.540;2022-11-20T05:13:35;4.00;99.90
15455;DHT22;21057;51.024;7.540;2022-11-20T05:16:05;4.00;99.90
15455;DHT22;21057;51.024;7.540;2022-11-20T05:18:33;4.00;99.90
15455;DHT22;21057;51.024;7.540;2022-11-20T05:21:00;3.90;99.90
15455;DHT22;21057;51.024;7.540;2022-11-20T05:23:30;4.00;99.90
15455;DHT22;21057;51.024;7.540;2022-11-20T05:25:58;4.10;99.90
15455;DHT22;21057;51.024;7.540;2022-11-20T05:28:26;4.10;99.90
15455;DHT22;21057;51.024;7.540;2022-11-20T05:30:53;4.10;99.90
15455;DHT22;21057;51.024;7.540;2022-11-20T05:33:21;4.20;99.90
15455;DHT22;21057;51.024;7.540;2022-11-20T05:35:48;4.20;99.90
15455;DHT22;21057;51.024;7.540;2022-11-20T05:38:15;4.20;99.90
15455;DHT22;21057;51.024;7.540;2022-11-20T05:40:42;4.20;99.90
15455;DHT22;21057;51.024;7.540;2022-11-20T05:43:09;4.20;99.90
15455;DHT22;21057;51.024;7.540;2022-11-20T05:45:36;4.30;99.90
15455;DHT22;21057;51.024;7.540;2022-11-20T05:48:03;4.30;99.90
15455;DHT22;21057;51.024;7.540;2022-11-20T05:50:31;4.30;99.90
15455;DHT22;21057;51.024;7.540;2022-11-20T05:52:58;4.20;99.90
15455;DHT22;21057;51.024;7.540;2022-11-20T05:55:26;4.20;99.90
15455;DHT22;21057;51.024;7.540;2022-11-20T05:57:53;4.10;99.90
15455;DHT22;21057;51.024;7.540;2022-11-20T06:00:20;4.20;99.90
15455;DHT22;21057;51.024;7.540;2022-11-20T06:02:47;4.20;99.90
15455;DHT22;21057;51.024;7.540;2022-11-20T06:05:14;4.20;99.90
15455;DHT22;21057;51.024;7.540;2022-11-20T06:07:42;4.10;99.90
15455;DHT22;21057;51.024;7.540;2022-11-20T06:10:09;4.20;99.90
15455;DHT22;21057;51.024;7.540;2022-11-20T06:12:36;4.10;99.90
15455;DHT22;21057;51.024;7.540;2022-11-20T06:15:03;4.10;99.90
15455;DHT22;21057;51.024;7.540;2022-11-20T06:17:30;4.00;99.90
15455;DHT22;21057;51.024;7.540;2022-11-20T06:19:57;4.00;99.90
15455;DHT22;21057;51.024;7.540;2022-11-20T06:22:24;4.00;99.90
15455;DHT22;21057;51.024;7.540;2022-11-20T06:24:52;4.10;99.90
15455;DHT22;21057;51.024;7.540;2022-11-20T06:27:19;4.20;99.90
15455;DHT22;21057;51.024;7.540;2022-11-20T06:29:46;4.20;99.90
15455;DHT22;21057;51.024;7.540;2022-11-20T06:32:13;4.20;99.90
15455;DHT22;21057;51.024;7.540;2022-11-20T06:34:39;4.20;99.90
15455;DHT22;21057;51.024;7.540;2022-11-20T06:37:06;4.20;99.90
15455;DHT22;21057;51.024;7.540;2022-11-20T06:39:33;4.30;99.90
15455;DHT22;21057;51.024;7.540;2022-11-20T06:42:01;4.10;99.90
15455;DHT22;21057;51.024;7.540;2022-11-20T06:44:28;4.20;99.90
15455;DHT22;21057;51.024;7.540;2022-11-20T06:46:55;4.10;99.90
15455;DHT22;21057;51.024;7.540;2022-11-20T06:49:21;4.10;99.90
15455;DHT22;21057;51.024;7.540;2022-11-20T06:51:48;4.10;99.90
15455;DHT22;21057;51.024;7.540;2022-11-20T06:54:15;3.90;99.90
15455;DHT22;21057;51.024;7.540;2022-11-20T06:56:42;3.80;99.90
15455;DHT22;21057;51.024;7.540;2022-11-20T06:59:10;3.80;99.90
15455;DHT22;21057;51.024;7.540;2022-11-20T07:01:37;3.80;99.90
15455;DHT22;21057;51.024;7.540;2022-11-20T07:04:04;3.80;99.90
15455;DHT22;21057;51.024;7.540;2022-11-20T07:06:31;3.70;99.90
15455;DHT22;21057;51.024;7.540;2022-11-20T07:08:58;3.80;99.90
15455;DHT22;21057;51.024;7.540;2022-11-20T07:11:24;3.90;99.90
15455;DHT22;21057;51.024;7.540;2022-11-20T07:13:51;3.90;99.90
15455;DHT22;21057;51.024;7.540;2022-11-20T07:16:20;3.80;99.90
15455;DHT22;21057;51.024;7.540;2022-11-20T07:18:46;3.80;99.90
15455;DHT22;21057;51.024;7.540;2022-11-20T07:21:14;3.70;99.90
15455;DHT22;21057;51.024;7.540;2022-11-20T07:23:41;3.70;99.90
15455;DHT22;21057;51.024;7.540;2022-11-20T07:26:09;3.80;99.90
15455;DHT22;21057;51.024;7.540;2022-11-20T07:28:36;3.70;99.90
15455;DHT22;21057;51.024;7.540;2022-11-20T07:31:04;3.60;99.90
15455;DHT22;21057;51.024;7.540;2022-11-20T07:33:33;3.70;99.90
15455;DHT22;21057;51.024;7.540;2022-11-20T07:36:00;3.60;99.90
15455;DHT22;21057;51.024;7.540;2022-11-20T07:38:27;3.70;99.90
15455;DHT22;21057;51.024;7.540;2022-11-20T07:40:54;3.70;99.90
15455;DHT22;21057;51.024;7.540;2022-11-20T07:43:23;3.70;99.90
15455;DHT22;21057;51.024;7.540;2022-11-20T07:45:50;3.70;99.90
15455;DHT22;21057;51.024;7.540;2022-11-20T07:48:17;3.70;99.90
15455;DHT22;21057;51.024;7.540;2022-11-20T07:50:45;3.70;99.90
15455;DHT22;21057;51.024;7.540;2022-11-20T07:53:12;3.80;99.90
15455;DHT22;21057;51.024;7.540;2022-11-20T07:55:46;3.70;99.90
15455;DHT22;21057;51.024;7.540;2022-11-20T07:58:13;3.70;99.90
15455;DHT22;21057;51.024;7.540;2022-11-20T08:00:40;3.60;99.90
15455;DHT22;21057;51.024;7.540;2022-11-20T08:03:07;3.60;99.90
15455;DHT22;21057;51.024;7.540;2022-11-20T08:05:34;3.80;99.90
15455;DHT22;21057;51.024;7.540;2022-11-20T08:08:02;3.80;99.90
15455;DHT22;21057;51.024;7.540;2022-11-20T08:10:29;3.80;99.90
15455;DHT22;21057;51.024;7.540;2022-11-20T08:12:56;3.80;99.90
15455;DHT22;21057;51.024;7.540;2022-11-20T08:15:40;4.00;99.90
15455;DHT22;21057;51.024;7.540;2022-11-20T08:18:09;4.10;99.90
15455;DHT22;21057;51.024;7.540;2022-11-20T08:20:37;4.40;99.90
15455;DHT22;21057;51.024;7.540;2022-11-20T08:23:06;4.10;99.90
15455;DHT22;21057;51.024;7.540;2022-11-20T08:25:34;4.00;99.90
15455;DHT22;21057;51.024;7.540;2022-11-20T08:28:03;4.10;99.90
15455;DHT22;21057;51.024;7.540;2022-11-20T08:30:30;4.10;99.90
15455;DHT22;21057;51.024;7.540;2022-11-20T08:33:02;4.00;99.90
15455;DHT22;21057;51.024;7.540;2022-11-20T08:35:32;3.90;99.90
15455;DHT22;21057;51.024;7.540;2022-11-20T08:37:59;4.00;99.90
15455;DHT22;21057;51.024;7.540;2022-11-20T08:40:27;4.20;99.90
15455;DHT22;21057;51.024;7.540;2022-11-20T08:42:54;4.40;99.90
15455;DHT22;21057;51.024;7.540;2022-11-20T08:45:21;4.50;99.90
15455;DHT22;21057;51.024;7.540;2022-11-20T08:47:48;4.50;99.90
15455;DHT22;21057;51.024;7.540;2022-11-20T08:50:16;4.50;99.90
15455;DHT22;21057;51.024;7.540;2022-11-20T08:52:44;4.40;99.90
15455;DHT22;21057;51.024;7.540;2022-11-20T08:55:11;4.30;99.90
15455;DHT22;21057;51.024;7.540;2022-11-20T08:57:39;4.30;99.90
15455;DHT22;21057;51.024;7.540;2022-11-20T09:00:07;4.30;99.90
15455;DHT22;21057;51.024;7.540;2022-11-20T09:02:34;4.40;99.90
15455;DHT22;21057;51.024;7.540;2022-11-20T09:05:01;4.50;99.90
15455;DHT22;21057;51.024;7.540;2022-11-20T09:07:29;4.60;99.90
15455;DHT22;21057;51.024;7.540;2022-11-20T09:09:56;4.60;99.90
15455;DHT22;21057;51.024;7.540;2022-11-20T09:12:23;4.80;99.90
15455;DHT22;21057;51.024;7.540;2022-11-20T09:14:51;4.70;99.90
15455;DHT22;21057;51.024;7.540;2022-11-20T09:17:18;4.90;99.90
15455;DHT22;21057;51.024;7.540;2022-11-20T09:19:46;4.80;99.90
15455;DHT22;21057;51.024;7.540;2022-11-20T09:22:13;4.90;99.90
15455;DHT22;21057;51.024;7.540;2022-11-20T09:24:40;5.00;99.90
15455;DHT22;21057;51.024;7.540;2022-11-20T09:27:08;5.10;99.90
15455;DHT22;21057;51.024;7.540;2022-11-20T09:29:34;5.00;99.90
15455;DHT22;21057;51.024;7.540;2022-11-20T09:32:03;5.20;99.90
15455;DHT22;21057;51.024;7.540;2022-11-20T09:34:30;5.10;99.90
15455;DHT22;21057;51.024;7.540;2022-11-20T09:36:56;5.20;99.90
15455;DHT22;21057;51.024;7.540;2022-11-20T09:39:23;5.30;99.90
15455;DHT22;21057;51.024;7.540;2022-11-20T09:42:13;5.50;99.90
15455;DHT22;21057;51.024;7.540;2022-11-20T09:45:01;5.60;99.90
15455;DHT22;21057;51.024;7.540;2022-11-20T09:47:41;5.60;99.90
15455;DHT22;21057;51.024;7.540;2022-11-20T09:50:23;5.90;99.90
15455;DHT22;21057;51.024;7.540;2022-11-20T09:53:04;5.70;99.90
15455;DHT22;21057;51.024;7.540;2022-11-20T09:55:35;5.60;99.90
15455;DHT22;21057;51.024;7.540;2022-11-20T09:58:06;5.60;99.90
15455;DHT22;21057;51.024;7.540;2022-11-20T10:00:34;5.90;99.90
15455;DHT22;21057;51.024;7.540;2022-11-20T10:03:10;5.80;99.90
15455;DHT22;21057;51.024;7.540;2022-11-20T10:05:42;5.70;99.90
15455;DHT22;21057;51.024;7.540;2022-11-20T10:08:15;5.70;99.90
15455;DHT22;21057;51.024;7.540;2022-11-20T10:10:46;5.80;99.90
15455;DHT22;21057;51.024;7.540;2022-11-20T10:13:34;5.90;99.90
15455;DHT22;21057;51.024;7.540;2022-11-20T10:16:16;5.90;99.90
15455;DHT22;21057;51.024;7.540;2022-11-20T10:18:58;5.80;99.90
15455;DHT22;21057;51.024;7.540;2022-11-20T10:21:36;5.70;99.90
15455;DHT22;21057;51.024;7.540;2022-11-20T10:24:30;5.80;99.90
15455;DHT22;21057;51.024;7.540;2022-11-20T10:27:05;5.90;99.90
15455;DHT22;21057;51.024;7.540;2022-11-20T10:29:35;5.80;99.90
15455;DHT22;21057;51.024;7.540;2022-11-20T10:32:07;5.80;99.90
15455;DHT22;21057;51.024;7.540;2022-11-20T10:34:46;6.00;99.90
15455;DHT22;21057;51.024;7.540;2022-11-20T10:37:17;5.90;99.90
15455;DHT22;21057;51.024;7.540;2022-11-20T10:39:50;6.00;99.90
15455;DHT22;21057;51.024;7.540;2022-11-20T10:42:26;5.90;99.90
15455;DHT22;21057;51.024;7.540;2022-11-20T10:45:01;5.80;99.90
15455;DHT22;21057;51.024;7.540;2022-11-20T10:47:30;6.10;99.90
15455;DHT22;21057;51.024;7.540;2022-11-20T10:50:03;6.10;99.90
15455;DHT22;21057;51.024;7.540;2022-11-20T10:52:36;6.50;99.90
15455;DHT22;21057;51.024;7.540;2022-11-20T10:55:23;6.50;99.90
15455;DHT22;21057;51.024;7.540;2022-11-20T10:57:55;6.50;99.90
15455;DHT22;21057;51.024;7.540;2022-11-20T11:00:24;6.40;99.90
15455;DHT22;21057;51.024;7.540;2022-11-20T11:02:52;6.50;99.90
15455;DHT22;21057;51.024;7.540;2022-11-20T11:05:32;6.50;99.90
15455;DHT22;21057;51.024;7.540;2022-11-20T11:08:00;6.30;99.90
15455;DHT22;21057;51.024;7.540;2022-11-20T11:10:35;6.50;99.90
15455;DHT22;21057;51.024;7.540;2022-11-20T11:13:03;6.50;99.90
15455;DHT22;21057;51.024;7.540;2022-11-20T11:15:37;6.70;99.90
15455;DHT22;21057;51.024;7.540;2022-11-20T11:18:05;6.60;99.90
15455;DHT22;21057;51.024;7.540;2022-11-20T11:20:33;6.50;99.90
15455;DHT22;21057;51.024;7.540;2022-11-20T11:23:00;6.40;99.90
15455;DHT22;21057;51.024;7.540;2022-11-20T11:25:29;6.60;99.90
15455;DHT22;21057;51.024;7.540;2022-11-20T11:27:59;6.60;99.90
15455;DHT22;21057;51.024;7.540;2022-11-20T11:30:27;6.70;99.90
15455;DHT22;21057;51.024;7.540;2022-11-20T11:33:05;6.60;99.90
15455;DHT22;21057;51.024;7.540;2022-11-20T11:35:43;6.70;99.90
15455;DHT22;21057;51.024;7.540;2022-11-20T11:38:14;6.60;99.90
15455;DHT22;21057;51.024;7.540;2022-11-20T11:40:42;6.50;99.90
15455;DHT22;21057;51.024;7.540;2022-11-20T11:43:18;6.70;99.90
15455;DHT22;21057;51.024;7.540;2022-11-20T11:46:07;6.60;99.90
15455;DHT22;21057;51.024;7.540;2022-11-20T11:48:40;6.80;99.90
15455;DHT22;21057;51.024;7.540;2022-11-20T11:51:09;6.80;99.90
15455;DHT22;21057;51.024;7.540;2022-11-20T11:53:38;6.70;99.90
15455;DHT22;21057;51.024;7.540;2022-11-20T11:56:09;6.80;99.90
15455;DHT22;21057;51.024;7.540;2022-11-20T11:58:44;6.60;99.90
15455;DHT22;21057;51.024;7.540;2022-11-20T12:01:28;6.50;99.90
15455;DHT22;21057;51.024;7.540;2022-11-20T12:04:04;6.60;99.90
15455;DHT22;21057;51.024;7.540;2022-11-20T12:06:34;6.40;99.90
15455;DHT22;21057;51.024;7.540;2022-11-20T12:09:04;6.40;99.90
15455;DHT22;21057;51.024;7.540;2022-11-20T12:11:34;6.50;99.90
15455;DHT22;21057;51.024;7.540;2022-11-20T12:14:11;6.30;99.90
15455;DHT22;21057;51.024;7.540;2022-11-20T12:16:39;6.30;99.90
15455;DHT22;21057;51.024;7.540;2022-11-20T12:19:09;6.30;99.90
15455;DHT22;21057;51.024;7.540;2022-11-20T12:21:50;6.40;99.90
15455;DHT22;21057;51.024;7.540;2022-11-20T12:24:42;6.30;99.90
15455;DHT22;21057;51.024;7.540;2022-11-20T12:30:10;6.30;99.90
15455;DHT22;21057;51.024;7.540;2022-11-20T12:35:44;6.60;99.90
15455;DHT22;21057;51.024;7.540;2022-11-20T12:38:36;6.50;99.90
15455;DHT22;21057;51.024;7.540;2022-11-20T12:41:13;6.60;99.90
15455;DHT22;21057;51.024;7.540;2022-11-20T12:44:10;6.70;99.90
15455;DHT22;21057;51.024;7.540;2022-11-20T12:47:11;6.80;99.90
15455;DHT22;21057;51.024;7.540;2022-11-20T12:49:48;6.90;99.90
15455;DHT22;21057;51.024;7.540;2022-11-20T12:52:25;6.80;99.90
15455;DHT22;21057;51.024;7.540;2022-11-20T12:55:16;6.80;99.90
15455;DHT22;21057;51.024;7.540;2022-11-20T12:57:48;6.90;99.90
15455;DHT22;21057;51.024;7.540;2022-11-20T13:00:18;6.80;99.90
15455;DHT22;21057;51.024;7.540;2022-11-20T13:03:27;6.60;99.90
15455;DHT22;21057;51.024;7.540;2022-11-20T13:06:04;6.70;99.90
15455;DHT22;21057;51.024;7.540;2022-11-20T13:08:39;6.70;99.90
15455;DHT22;21057;51.024;7.540;2022-11-20T13:11:12;6.60;99.90
15455;DHT22;21057;51.024;7.540;2022-11-20T13:13:59;6.70;99.90
15455;DHT22;21057;51.024;7.540;2022-11-20T13:16:34;6.70;99.90
15455;DHT22;21057;51.024;7.540;2022-11-20T13:19:04;6.60;99.90
15455;DHT22;21057;51.024;7.540;2022-11-20T13:21:37;6.60;99.90
15455;DHT22;21057;51.024;7.540;2022-11-20T13:24:05;6.50;99.90
15455;DHT22;21057;51.024;7.540;2022-11-20T13:26:34;6.50;99.90
15455;DHT22;21057;51.024;7.540;2022-11-20T13:29:07;6.50;99.90
15455;DHT22;21057;51.024;7.540;2022-11-20T13:31:36;6.50;99.90
15455;DHT22;21057;51.024;7.540;2022-11-20T13:34:06;6.50;99.90
15455;DHT22;21057;51.024;7.540;2022-11-20T13:36:33;6.50;99.90
15455;DHT22;21057;51.024;7.540;2022-11-20T13:39:02;6.50;99.90
15455;DHT22;21057;51.024;7.540;2022-11-20T13:41:31;6.60;99.90
15455;DHT22;21057;51.024;7.540;2022-11-20T13:44:10;6.50;99.90
15455;DHT22;21057;51.024;7.540;2022-11-20T13:46:40;6.50;99.90
15455;DHT22;21057;51.024;7.540;2022-11-20T13:49:15;6.50;99.90
15455;DHT22;21057;51.024;7.540;2022-11-20T13:51:45;6.60;99.90
15455;DHT22;21057;51.024;7.540;2022-11-20T13:54:47;6.60;99.90
15455;DHT22;21057;51.024;7.540;2022-11-20T14:00:15;6.40;99.90
15455;DHT22;21057;51.024;7.540;2022-11-20T14:02:42;6.50;99.90
15455;DHT22;21057;51.024;7.540;2022-11-20T14:05:19;6.50;99.90
15455;DHT22;21057;51.024;7.540;2022-11-20T14:07:48;6.40;99.90
15455;DHT22;21057;51.024;7.540;2022-11-20T14:10:23;6.50;99.90
15455;DHT22;21057;51.024;7.540;2022-11-20T14:12:50;6.60;99.90
15455;DHT22;21057;51.024;7.540;2022-11-20T14:15:29;6.60;99.90
15455;DHT22;21057;51.024;7.540;2022-11-20T14:17:57;6.60;99.90
15455;DHT22;21057;51.024;7.540;2022-11-20T14:20:27;6.60;99.90
15455;DHT22;21057;51.024;7.540;2022-11-20T14:22:55;6.50;99.90
15455;DHT22;21057;51.024;7.540;2022-11-20T14:25:23;6.60;99.90
15455;DHT22;21057;51.024;7.540;2022-11-20T14:27:53;6.70;99.90
15455;DHT22;21057;51.024;7.540;2022-11-20T14:30:23;6.60;99.90
15455;DHT22;21057;51.024;7.540;2022-11-20T14:32:53;6.60;99.90
15455;DHT22;21057;51.024;7.540;2022-11-20T14:35:24;6.60;99.90
15455;DHT22;21057;51.024;7.540;2022-11-20T14:37:52;6.70;99.90
15455;DHT22;21057;51.024;7.540;2022-11-20T14:40:25;6.70;99.90
15455;DHT22;21057;51.024;7.540;2022-11-20T14:42:53;6.90;99.90
15455;DHT22;21057;51.024;7.540;2022-11-20T14:45:21;6.80;99.90
15455;DHT22;21057;51.024;7.540;2022-11-20T14:47:49;6.80;99.90
15455;DHT22;21057;51.024;7.540;2022-11-20T14:50:21;6.70;99.90
15455;DHT22;21057;51.024;7.540;2022-11-20T14:52:53;6.60;99.90
15455;DHT22;21057;51.024;7.540;2022-11-20T14:55:30;6.50;99.90
15455;DHT22;21057;51.024;7.540;2022-11-20T14:57:59;6.50;99.90
15455;DHT22;21057;51.024;7.540;2022-11-20T15:00:26;6.50;99.90
15455;DHT22;21057;51.024;7.540;2022-11-20T15:02:53;6.50;99.90
15455;DHT22;21057;51.024;7.540;2022-11-20T15:05:23;6.60;99.90
15455;DHT22;21057;51.024;7.540;2022-11-20T15:08:03;6.50;99.90
15455;DHT22;21057;51.024;7.540;2022-11-20T15:10:31;6.60;99.90
15455;DHT22;21057;51.024;7.540;2022-11-20T15:13:00;6.50;99.90
15455;DHT22;21057;51.024;7.540;2022-11-20T15:15:30;6.60;99.90
15455;DHT22;21057;51.024;7.540;2022-11-20T15:17:58;6.50;99.90
15455;DHT22;21057;51.024;7.540;2022-11-20T15:20:30;6.50;99.90
15455;DHT22;21057;51.024;7.540;2022-11-20T15:22:57;6.50;99.90
15455;DHT22;21057;51.024;7.540;2022-11-20T15:25:25;6.40;99.90
15455;DHT22;21057;51.024;7.540;2022-11-20T15:27:55;6.50;99.90
15455;DHT22;21057;51.024;7.540;2022-11-20T15:30:23;6.50;99.90
15455;DHT22;21057;51.024;7.540;2022-11-20T15:32:50;6.50;99.90
15455;DHT22;21057;51.024;7.540;2022-11-20T15:35:17;6.40;99.90
15455;DHT22;21057;51.024;7.540;2022-11-20T15:37:45;6.60;99.90
15455;DHT22;21057;51.024;7.540;2022-11-20T15:40:13;6.40;99.90
15455;DHT22;21057;51.024;7.540;2022-11-20T15:42:40;6.40;99.90
15455;DHT22;21057;51.024;7.540;2022-11-20T15:45:29;6.40;99.90
15455;DHT22;21057;51.024;7.540;2022-11-20T15:47:57;6.40;99.90
15455;DHT22;21057;51.024;7.540;2022-11-20T15:50:29;6.60;99.90
15455;DHT22;21057;51.024;7.540;2022-11-20T15:52:58;6.50;99.90
15455;DHT22;21057;51.024;7.540;2022-11-20T15:55:25;6.50;99.90
15455;DHT22;21057;51.024;7.540;2022-11-20T15:57:52;6.40;99.90
15455;DHT22;21057;51.024;7.540;2022-11-20T16:00:19;6.40;99.90
15455;DHT22;21057;51.024;7.540;2022-11-20T16:02:46;6.40;99.90
15455;DHT22;21057;51.024;7.540;2022-11-20T16:05:13;6.50;99.90
15455;DHT22;21057;51.024;7.540;2022-11-20T16:07:42;6.40;99.90
15455;DHT22;21057;51.024;7.540;2022-11-20T16:10:10;6.50;99.90
15455;DHT22;21057;51.024;7.540;2022-11-20T16:12:38;6.50;99.90